Latest Coastal Weather Observations for King Island Airport

IDV60701

Issued at 12:05 pm EST Sunday 21 September 2014 (issued every 10 minutes, with the page automatically refreshed every 10 minutes)

About coastal observations | Map of coastal stations | Coastal observations for VIC | Marine services | Other Formats
Station Details ID: 098017 Name: KING ISLAND AIRPORT Lat: -39.88 Lon: 143.88 Height: 37.0 m
Data from the previous 72 hours. | See also: Recent months at King Island Airport
Date/Time
EST
Temp

°C
Wind Pressure Rain
since 9am
mm
Weather Cloud Vis
km
Sea
Height
m
Swell
Dir
 
Speed
knots
Gust
knots
hPa Trend Height
m
Period
s
Dir
21/12:00pm 13.8 SW 9 13 1031.7 - 0.0 - Cloudy 10 - - - -
21/11:30am 14.1 SW 9 14 1031.8 - 0.0 - Partly cloudy - - - - -
21/11:00am 13.2 SW 11 15 1032.0 - 0.0 - Partly cloudy 10 - - - -
21/10:30am 13.3 SW 9 14 1032.1 - 0.0 - Partly cloudy 10 - - - -
21/10:00am 13.7 SSW 9 14 1032.2 - 0.0 - Partly cloudy - - - - -
21/09:30am 13.2 SSW 10 14 1032.2 - 0.0 - Cloudy 10 - - - -
21/09:00am 13.2 SSW 9 13 1032.1 - 0.0 - Cloudy 10 - - - -
21/08:30am 13.2 SW 8 11 1032.0 - 0.0 - Partly cloudy 10 - - - -
21/08:00am 11.9 SSW 5 7 1031.8 - 0.0 - Cloudy 10 - - - -
21/07:30am 11.6 SW 5 8 1031.6 - 0.0 - Cloudy 10 - - - -
21/07:00am 11.4 SSW 7 9 1031.2 - 0.0 - Cloudy 10 - - - -
21/06:30am 11.2 SW 6 8 1030.8 - 0.0 - Cloudy 10 - - - -
21/06:00am 11.1 SW 5 8 1030.4 - 0.0 - Cloudy 10 - - - -
21/05:30am 10.7 SW 6 7 1030.4 - 0.0 - Partly cloudy 10 - - - -
21/05:00am 11.3 WSW 7 10 1030.1 - 0.0 - Cloudy 10 - - - -
21/04:30am 11.0 SW 7 8 1030.0 - 0.0 - Cloudy 10 - - - -
21/04:00am 11.1 WSW 7 9 1029.8 - 0.0 - Cloudy 10 - - - -
21/03:30am 11.1 SW 6 9 1029.9 - 0.0 - Cloudy 10 - - - -
21/03:00am 11.3 WSW 7 8 1029.9 - 0.0 - Mostly cloudy 10 - - - -
21/02:30am 11.6 SW 10 13 1030.2 - 0.0 - Cloudy 10 - - - -
21/02:00am 11.3 SW 7 8 1030.3 - 0.0 - Cloudy 10 - - - -
21/01:30am 11.0 WSW 6 9 1030.5 - 0.0 - Cloudy 10 - - - -
21/01:00am 11.0 SW 6 9 1030.7 - 0.0 - Cloudy 10 - - - -
21/12:30am 11.1 SW 7 9 1030.7 - 0.0 - Cloudy 10 - - - -
21/12:00am 10.6 SSW 1 8 1030.8 - 0.0 - Cloudy 10 - - - -
 
Date/Time
EST
Temp

°C
Wind Pressure Rain
since 9am
mm
Weather Cloud Vis
km
Sea
Height
m
Swell
Dir
 
Speed
knots
Gust
knots
hPa Trend Height
m
Period
s
Dir
20/11:30pm 10.6 CALM 0 0 1030.9 - 0.0 - Cloudy 10 - - - -
20/11:00pm 10.5 SSE 4 5 1031.1 - 0.0 - Partly cloudy 10 - - - -
20/10:30pm 11.4 SW 7 10 1030.9 - 0.0 - Cloudy 10 - - - -
20/10:00pm 10.9 S 1 4 1030.8 - 0.0 - Cloudy 10 - - - -
20/09:30pm 10.9 S 3 4 1030.8 - 0.0 - Cloudy 10 - - - -
20/09:00pm 11.0 SSW 5 6 1030.7 - 0.0 - Cloudy 10 - - - -
20/08:30pm 11.0 SW 6 7 1030.6 - 0.0 - Cloudy 10 - - - -
20/08:00pm 10.6 S 3 4 1030.2 - 0.0 - Partly cloudy 10 - - - -
20/07:30pm 11.1 SSW 4 5 1030.1 - 0.0 - Cloudy 10 - - - -
20/07:00pm 11.2 SSW 5 7 1029.8 - 0.0 - Cloudy 10 - - - -
20/06:30pm 11.4 SW 5 6 1029.6 - 0.0 - Cloudy 10 - - - -
20/06:00pm 11.6 SSW 7 8 1029.7 - 0.0 - Cloudy 10 - - - -
20/05:30pm 11.9 SSW 10 15 1029.3 - 0.0 - Cloudy 10 - - - -
20/05:00pm 11.8 SSW 12 16 1029.0 - 0.0 - Partly cloudy 10 - - - -
20/04:30pm 12.1 SSW 13 18 1028.7 - 0.0 - Cloudy 10 - - - -
20/04:00pm 12.2 SSW 12 16 1028.5 - 0.0 - Partly cloudy 10 - - - -
20/03:30pm 12.8 SSW 12 16 1028.6 - 0.0 - Partly cloudy 10 - - - -
20/03:00pm 12.6 SW 11 15 1028.7 - 0.0 - Cloudy 10 - - - -
20/02:30pm 12.8 SSW 15 19 1028.6 - 0.0 - Partly cloudy 10 - - - -
20/02:00pm 12.9 SW 15 19 1028.5 - 0.0 - Partly cloudy 10 - - - -
20/01:30pm 12.8 SW 13 18 1028.4 - 0.0 - Partly cloudy 10 - - - -
20/01:00pm 12.8 SW 11 15 1028.5 - 0.0 - Cloudy 10 - - - -
20/12:30pm 12.6 SW 11 14 1028.5 - 0.0 - Partly cloudy 10 - - - -
20/12:00pm 13.4 SW 12 18 1028.4 - 0.0 - Cloudy 10 - - - -
20/11:30am 12.6 SSW 12 17 1028.3 - 0.0 - Partly cloudy 10 - - - -
20/11:00am 12.8 SW 12 16 1028.4 - 0.0 - Partly cloudy 10 - - - -
20/10:30am 13.0 SSW 11 16 1028.6 - 0.0 - Partly cloudy 10 - - - -
20/10:00am 12.5 SSW 14 18 1028.6 - 0.0 - Partly cloudy 10 - - - -
20/09:30am 12.5 S 11 16 1028.4 - 0.0 - Partly cloudy 10 - - - -
20/09:00am 11.9 SSW 12 18 1028.4 - 1.8 - Mostly cloudy 10 - - - -
20/08:30am 11.8 SSW 16 21 1028.4 - 1.8 - Partly cloudy 10 - - - -
20/08:00am 10.8 SSW 9 12 1028.0 - 1.8 - Partly cloudy 10 - - - -
20/07:30am 10.1 S 8 11 1027.9 - 1.8 - Partly cloudy 10 - - - -
20/07:00am 9.9 SSW 8 12 1027.4 - 1.6 - Partly cloudy 10 - - - -
20/06:30am 9.9 SSW 6 8 1026.9 - 1.6 - Partly cloudy 8 - - - -
20/06:00am 9.3 SW 8 10 1026.6 - 1.4 Drizzle Partly cloudy 10 - - - -
20/05:30am 9.7 SW 11 16 1026.2 - 1.4 - Partly cloudy 10 - - - -
20/05:00am 9.9 SW 9 12 1025.7 - 1.4 - Partly cloudy 10 - - - -
20/04:30am 10.0 SW 9 14 1025.4 - 1.4 - Partly cloudy 10 - - - -
20/04:00am 10.3 SW 12 18 1025.2 - 1.4 - Partly cloudy 10 - - - -
20/03:30am 10.0 SW 11 15 1025.1 - 1.4 - Partly cloudy 10 - - - -
20/03:00am 10.1 SW 11 15 1025.1 - 1.4 Drizzle Cloudy 10 - - - -
20/02:30am 10.1 SW 8 12 1025.0 - 1.2 - Partly cloudy 8 - - - -
20/02:00am 10.4 SSW 13 18 1025.2 - 0.8 - Partly cloudy 10 - - - -
20/01:30am 10.3 SW 8 12 1025.1 - 0.8 - Partly cloudy 10 - - - -
20/01:00am 10.4 S 8 10 1025.2 - 0.8 - Partly cloudy 10 - - - -
20/12:30am 10.0 SW 13 20 1025.2 - 0.8 - Partly cloudy 8 - - - -
20/12:29am 10.0 SW 13 20 1025.2 - 0.8 - Partly cloudy 8 - - - -
20/12:16am 10.0 SW 14 22 1025.2 - 0.6 - Partly cloudy 5 - - - -
20/12:00am 10.0 SW 13 17 1025.1 - 0.6 Drizzle Cloudy 10 - - - -
 
Date/Time
EST
Temp

°C
Wind Pressure Rain
since 9am
mm
Weather Cloud Vis
km
Sea
Height
m
Swell
Dir
 
Speed
knots
Gust
knots
hPa Trend Height
m
Period
s
Dir
19/11:30pm 10.0 SW 11 17 1025.2 - 0.6 - Partly cloudy 10 - - - -
19/11:00pm 10.3 WSW 14 19 1025.3 - 0.6 - Partly cloudy 10 - - - -
19/10:30pm 10.8 SW 14 19 1025.3 - 0.6 - Partly cloudy 10 - - - -
19/10:00pm 10.9 SW 12 16 1025.2 - 0.6 - Partly cloudy 10 - - - -
19/09:30pm 10.7 SW 12 15 1025.2 - 0.6 - Partly cloudy 10 - - - -
19/09:00pm 10.6 SSW 11 14 1025.2 - 0.6 Showers Cloudy 10 - - - -
19/08:30pm 10.7 SW 13 18 1025.1 - 0.2 - Partly cloudy 10 - - - -
19/08:00pm 10.5 WSW 12 17 1025.0 - 0.2 - Partly cloudy 10 - - - -
19/07:30pm 10.9 SW 13 18 1024.8 - 0.2 - Partly cloudy 10 - - - -
19/07:00pm 10.6 SW 14 19 1024.6 - 0.2 - Partly cloudy 10 - - - -
19/06:30pm 11.0 SW 13 18 1024.2 - 0.2 - Partly cloudy 10 - - - -
19/06:00pm 10.7 WSW 15 20 1024.1 - 0.2 - Mostly cloudy 10 - - - -
19/05:30pm 11.2 SW 14 19 1023.9 - 0.2 - Partly cloudy 10 - - - -
19/05:00pm 11.5 SW 15 21 1023.7 - 0.2 - Partly cloudy 10 - - - -
19/04:30pm 10.4 SW 16 21 1023.7 - 0.2 - Partly cloudy 10 - - - -
19/04:00pm 11.2 SW 15 19 1023.8 - 0.2 - Partly cloudy 10 - - - -
19/03:30pm 12.8 WSW 16 21 1023.6 - 0.2 - Partly cloudy 10 - - - -
19/03:00pm 12.5 SW 16 21 1023.5 - 0.2 - Cloudy 10 - - - -
19/02:30pm 11.9 SW 16 21 1023.5 - 0.2 - Partly cloudy 10 - - - -
19/02:14pm 12.2 SW 21 24 1023.4 - 0.2 - Partly cloudy 10 - - - -
19/02:00pm 11.7 WSW 16 21 1023.4 - 0.2 - Partly cloudy 10 - - - -
19/01:30pm 12.9 WSW 16 23 1023.5 - 0.0 - Partly cloudy 10 - - - -
19/01:00pm 12.2 W 13 19 1023.6 - 0.0 - Partly cloudy 10 - - - -
19/12:30pm 11.8 WSW 19 26 1023.8 - 0.0 - Partly cloudy 10 - - - -
19/12:00pm 13.3 WSW 16 22 1023.7 - 0.0 - Mostly cloudy 10 - - - -
19/11:30am 13.1 WSW 16 21 1023.8 - 0.0 - Partly cloudy 10 - - - -
19/11:00am 13.7 WSW 17 22 1023.8 - 0.0 - Partly cloudy 10 - - - -
19/10:30am 12.9 SW 17 24 1024.0 - 0.0 - Partly cloudy 10 - - - -
19/10:00am 12.5 SW 17 22 1024.1 - 0.0 - Partly cloudy 10 - - - -
19/09:30am 13.0 SW 16 21 1024.2 - 0.0 - Cloudy 10 - - - -
19/09:00am 12.4 SW 18 22 1024.0 - 0.6 - Mostly clear 10 - - - -
19/08:30am 12.2 SW 16 20 1023.9 - 0.6 - Partly cloudy 10 - - - -
19/08:00am 11.1 SW 17 24 1023.9 - 0.6 - Partly cloudy 10 - - - -
19/07:30am 11.3 SW 15 19 1023.6 - 0.6 - Cloudy 10 - - - -
19/07:00am 10.2 WSW 12 16 1023.5 - 0.6 - Partly cloudy 10 - - - -
19/06:30am 11.1 SW 12 17 1023.2 - 0.4 - Partly cloudy 10 - - - -
19/06:00am 10.9 SW 13 17 1022.9 - 0.4 - Cloudy 10 - - - -
19/05:30am 10.5 WSW 12 17 1022.8 - 0.4 - Partly cloudy 10 - - - -
19/05:00am 10.2 WSW 12 16 1022.8 - 0.4 - Partly cloudy 10 - - - -
19/04:43am 10.1 SW 15 25 1022.8 - 0.4 - Partly cloudy 10 - - - -
19/04:30am 10.7 WSW 13 17 1022.6 - 0.4 - Partly cloudy 10 - - - -
19/04:00am 10.1 WSW 13 18 1022.4 - 0.4 - Partly cloudy 10 - - - -
19/03:30am 9.9 SW 13 20 1022.7 - 0.4 - Partly cloudy 10 - - - -
19/03:00am 10.8 WSW 14 20 1022.6 - 0.4 - Mostly cloudy 10 - - - -
19/02:30am 10.5 WSW 11 15 1022.8 - 0.4 - Partly cloudy 10 - - - -
19/02:00am 10.5 WSW 12 15 1022.9 - 0.4 - Partly cloudy 10 - - - -
19/01:30am 10.8 WSW 14 19 1023.1 - 0.4 - Partly cloudy 10 - - - -
19/01:00am 10.3 WSW 14 22 1023.2 - 0.4 - Partly cloudy 10 - - - -
19/12:30am 10.6 WSW 13 16 1023.2 - 0.4 - Partly cloudy 10 - - - -
19/12:00am 10.7 WSW 13 17 1023.3 - 0.4 - Partly cloudy 10 - - - -
 
Date/Time
EST
Temp

°C
Wind Pressure Rain
since 9am
mm
Weather Cloud Vis
km
Sea
Height
m
Swell
Dir
 
Speed
knots
Gust
knots
hPa Trend Height
m
Period
s
Dir
18/11:30pm 10.8 WSW 13 17 1023.4 - 0.4 - Partly cloudy 10 - - - -
18/11:00pm 10.9 WSW 13 19 1023.7 - 0.4 - Partly cloudy 10 - - - -
18/10:30pm 10.3 WSW 11 17 1023.9 - 0.4 - Partly cloudy 10 - - - -
18/10:00pm 10.6 WSW 12 17 1024.0 - 0.4 - Partly cloudy 10 - - - -
18/09:30pm 10.4 WSW 12 17 1023.9 - 0.4 - Partly cloudy 10 - - - -
18/09:00pm 10.6 WSW 14 19 1023.8 - 0.4 - Partly cloudy 10 - - - -
18/08:30pm 10.7 WSW 12 17 1023.6 - 0.4 - Partly cloudy 10 - - - -
18/08:00pm 10.4 WSW 13 17 1023.6 - 0.4 - Partly cloudy 10 - - - -
18/07:30pm 10.5 WSW 15 20 1023.5 - 0.4 - Partly cloudy 10 - - - -
18/07:00pm 10.6 WSW 15 21 1023.2 - 0.4 - Partly cloudy 10 - - - -
18/06:30pm 10.4 WSW 14 19 1023.0 - 0.4 - Partly cloudy 10 - - - -
18/06:00pm 10.4 WSW 14 21 1023.0 - 0.4 - - 10 - - - -
18/05:30pm 10.9 SW 15 20 1022.9 - 0.4 - Partly cloudy 10 - - - -
18/05:00pm 11.8 SW 14 17 1022.7 - 0.4 - Partly cloudy 10 - - - -
18/04:30pm 11.4 SW 16 21 1022.6 - 0.4 - Partly cloudy 10 - - - -
18/04:00pm 12.1 SW 17 25 1022.6 - 0.4 - Partly cloudy 10 - - - -
18/03:30pm 12.0 SW 17 23 1022.6 - 0.4 - Partly cloudy 10 - - - -
18/03:00pm 12.5 SW 17 22 1022.5 - 0.4 - Partly cloudy 10 - - - -
18/02:30pm 12.9 SW 18 23 1022.4 - 0.4 - Partly cloudy 10 - - - -
18/02:00pm 12.8 SW 18 23 1022.3 - 0.4 - Partly cloudy - - - - -
18/01:30pm 12.0 SW 16 20 1022.3 - 0.4 - Partly cloudy 10 - - - -
18/01:00pm 12.8 SW 15 22 1022.1 - 0.4 - - - - - - -
18/12:30pm 12.4 SW 16 23 1022.4 - 0.4 - - - - - - -

Other Formats:

Comma delimited format used in spreadsheet applications
http://www.bom.gov.au/fwo/IDV60701/IDV60701.94850.axf

JavaScript Object Notation format (JSON) in row-major order
http://www.bom.gov.au/fwo/IDV60701/IDV60701.94850.json